Beaverton, Oregon
Current Conditions -  °F | °C
As of 12:29 AM on Monday 22 Dec 2014 (Local Time) from KHIO Reporting Station
Haze Haze  
Wind Chill: 49°   Ceiling: 2500
Heat Index: 49°   Visibility: 5mi
Dew Point: 49°   Wind: 0mph
Humidity: 100%   Direction: NA
Pressure: 30.19"   Gusts: NA
Location:  45.49°N, 122.79°W
Report Text: KHIO 220829Z AUTO 00000KT 5SM BR BKN025 OVC030 09/09 A3019 RMK AO2 T00940094
Loading
Personal Weather Stations






























Interactive Weather Map New forecast layout! Learn more

10-Day Weather Forecast

Advertisements
Track Severe Weather on mobile